Prince George Airport
CYXS : now visible

Airfield :











YOU CAN JOIN US ON...

 
LOGIN :

Register | Disclaimer

   EN    FR    IT 

 









Legend :    VFR   Marginal VFR   IFR   Intensive IFR   Very Intensive IFR
Visi :
Ceiling :
>= 8 km
>= 3000ft
5 to 8 km
1000 to 3000 ft
1500m to 5 km
500 to 1000 ft
800 to 1500m
200 to 500 ft
< 800m
< 200 ft
Symbols :   Thunderstorms  Fog  Heavy snow  Heavy precipitations  Wind > 20 kt







- Airport Elevation : 2267 ft
- IATA code : YXS


CYXS - Prince George

CURRENT METAR :
  • 260400Z AUTO 20002KT 9SM SCT090 10/05 A3012 RMK SLP217

EXPIRED METARs :
  • 260300Z AUTO 23003KT 210V290 9SM CLR 13/05 A3011 RMK SLP210 DENSITY ALT 2300FT
  • 260200Z AUTO 29004KT 9SM CLR 16/04 A3010 RMK SLP206 DENSITY ALT 2700FT

TAF TAF CYXS
Valid from the 26 at 01:00 until the 26 at 13:00 UTC


260038Z 2601/2613 27008KT P6SM BKN080
FM260400 28008KT P6SM SCT080
BECMG 2606/2608 18006KT RMK FCST BASED ON AUTO OBS. NXT FCST BY 260700Z
No reported NOTAMs for that airfield.



MET'MAP, your aeronautical weather chart ! - Copyright ORBIFLY December 2007 - Disclaimer

ORBIFLY MET'MAP TEAM :

Programming & Development : Alexandra Zaïnal
Concept & Development : Baudouin d'Aumeries
Co-Development & Prog : Marc-Olivier Méhu
Technical & hardware support : Manuel Goepfert

Contact : metmap@orbifly.com




SOURCES & CREDITS :

   NOAA       Earth
Advisory